sensor_id;sensor_type;location;lat;lon;timestamp;P1;durP1;ratioP1;P2;durP2;ratioP2
18532;SDS011;9396;51.510;11.934;2023-12-22T00:01:43;13.43;;;3.10;;
18532;SDS011;9396;51.510;11.934;2023-12-22T00:04:10;11.47;;;3.07;;
18532;SDS011;9396;51.510;11.934;2023-12-22T00:06:36;14.67;;;5.17;;
18532;SDS011;9396;51.510;11.934;2023-12-22T00:09:04;18.20;;;3.37;;
18532;SDS011;9396;51.510;11.934;2023-12-22T00:11:31;20.13;;;4.47;;
18532;SDS011;9396;51.510;11.934;2023-12-22T00:13:57;20.80;;;4.97;;
18532;SDS011;9396;51.510;11.934;2023-12-22T00:16:24;19.93;;;5.27;;
18532;SDS011;9396;51.510;11.934;2023-12-22T00:18:51;18.13;;;3.83;;
18532;SDS011;9396;51.510;11.934;2023-12-22T00:21:18;17.37;;;3.83;;
18532;SDS011;9396;51.510;11.934;2023-12-22T00:23:45;17.87;;;4.33;;
18532;SDS011;9396;51.510;11.934;2023-12-22T00:26:13;18.33;;;3.67;;
18532;SDS011;9396;51.510;11.934;2023-12-22T00:28:40;19.17;;;3.70;;
18532;SDS011;9396;51.510;11.934;2023-12-22T00:31:08;14.00;;;3.47;;
18532;SDS011;9396;51.510;11.934;2023-12-22T00:33:34;16.37;;;3.20;;
18532;SDS011;9396;51.510;11.934;2023-12-22T00:36:01;21.23;;;3.97;;
18532;SDS011;9396;51.510;11.934;2023-12-22T00:38:27;12.20;;;3.60;;
18532;SDS011;9396;51.510;11.934;2023-12-22T00:40:54;18.00;;;3.97;;
18532;SDS011;9396;51.510;11.934;2023-12-22T00:43:22;22.00;;;4.10;;
18532;SDS011;9396;51.510;11.934;2023-12-22T00:45:49;22.57;;;4.13;;
18532;SDS011;9396;51.510;11.934;2023-12-22T00:48:16;24.40;;;3.93;;
18532;SDS011;9396;51.510;11.934;2023-12-22T00:50:43;19.30;;;4.23;;
18532;SDS011;9396;51.510;11.934;2023-12-22T00:53:09;13.27;;;3.30;;
18532;SDS011;9396;51.510;11.934;2023-12-22T00:55:36;14.37;;;3.00;;
18532;SDS011;9396;51.510;11.934;2023-12-22T00:58:03;14.00;;;3.03;;
18532;SDS011;9396;51.510;11.934;2023-12-22T01:00:31;14.70;;;3.27;;
18532;SDS011;9396;51.510;11.934;2023-12-22T01:02:57;16.97;;;3.27;;
18532;SDS011;9396;51.510;11.934;2023-12-22T01:05:24;18.63;;;3.33;;
18532;SDS011;9396;51.510;11.934;2023-12-22T01:07:50;12.83;;;3.00;;
18532;SDS011;9396;51.510;11.934;2023-12-22T01:10:17;20.97;;;3.70;;
18532;SDS011;9396;51.510;11.934;2023-12-22T01:12:44;16.30;;;3.33;;
18532;SDS011;9396;51.510;11.934;2023-12-22T01:15:10;25.07;;;4.00;;
18532;SDS011;9396;51.510;11.934;2023-12-22T01:17:38;21.20;;;5.33;;
18532;SDS011;9396;51.510;11.934;2023-12-22T01:20:05;21.80;;;4.30;;
18532;SDS011;9396;51.510;11.934;2023-12-22T01:22:32;28.07;;;4.40;;
18532;SDS011;9396;51.510;11.934;2023-12-22T01:25:03;21.57;;;4.27;;
18532;SDS011;9396;51.510;11.934;2023-12-22T01:27:30;21.47;;;5.17;;
18532;SDS011;9396;51.510;11.934;2023-12-22T01:29:57;26.47;;;5.23;;
18532;SDS011;9396;51.510;11.934;2023-12-22T01:32:23;22.53;;;4.33;;
18532;SDS011;9396;51.510;11.934;2023-12-22T01:34:51;18.53;;;4.17;;
18532;SDS011;9396;51.510;11.934;2023-12-22T01:37:18;32.80;;;4.70;;
18532;SDS011;9396;51.510;11.934;2023-12-22T01:39:44;34.13;;;4.47;;
18532;SDS011;9396;51.510;11.934;2023-12-22T01:42:11;18.37;;;3.97;;
18532;SDS011;9396;51.510;11.934;2023-12-22T01:44:37;26.70;;;4.33;;
18532;SDS011;9396;51.510;11.934;2023-12-22T01:47:04;29.00;;;4.93;;
18532;SDS011;9396;51.510;11.934;2023-12-22T01:49:31;21.50;;;4.10;;
18532;SDS011;9396;51.510;11.934;2023-12-22T01:51:59;27.93;;;5.13;;
18532;SDS011;9396;51.510;11.934;2023-12-22T01:54:26;19.17;;;3.90;;
18532;SDS011;9396;51.510;11.934;2023-12-22T01:56:53;18.83;;;3.90;;
18532;SDS011;9396;51.510;11.934;2023-12-22T01:59:20;24.30;;;4.60;;
18532;SDS011;9396;51.510;11.934;2023-12-22T02:01:48;23.73;;;4.97;;
18532;SDS011;9396;51.510;11.934;2023-12-22T02:04:14;22.97;;;5.20;;
18532;SDS011;9396;51.510;11.934;2023-12-22T02:06:41;19.50;;;3.70;;
18532;SDS011;9396;51.510;11.934;2023-12-22T02:09:10;17.10;;;3.77;;
18532;SDS011;9396;51.510;11.934;2023-12-22T02:11:37;23.27;;;3.43;;
18532;SDS011;9396;51.510;11.934;2023-12-22T02:14:05;18.60;;;3.13;;
18532;SDS011;9396;51.510;11.934;2023-12-22T02:16:32;16.33;;;3.53;;
18532;SDS011;9396;51.510;11.934;2023-12-22T02:19:15;16.60;;;3.40;;
18532;SDS011;9396;51.510;11.934;2023-12-22T02:21:59;15.60;;;3.37;;
18532;SDS011;9396;51.510;11.934;2023-12-22T02:24:28;18.53;;;3.40;;
18532;SDS011;9396;51.510;11.934;2023-12-22T02:26:55;15.87;;;3.20;;
18532;SDS011;9396;51.510;11.934;2023-12-22T02:29:29;21.00;;;3.10;;
18532;SDS011;9396;51.510;11.934;2023-12-22T02:31:59;16.77;;;3.37;;
18532;SDS011;9396;51.510;11.934;2023-12-22T02:34:32;18.30;;;3.70;;
18532;SDS011;9396;51.510;11.934;2023-12-22T02:37:03;23.43;;;3.70;;
18532;SDS011;9396;51.510;11.934;2023-12-22T02:39:33;15.23;;;3.37;;
18532;SDS011;9396;51.510;11.934;2023-12-22T02:41:59;19.33;;;3.60;;
18532;SDS011;9396;51.510;11.934;2023-12-22T02:44:26;19.73;;;4.27;;
18532;SDS011;9396;51.510;11.934;2023-12-22T02:46:53;19.43;;;3.60;;
18532;SDS011;9396;51.510;11.934;2023-12-22T02:49:20;10.13;;;2.83;;
18532;SDS011;9396;51.510;11.934;2023-12-22T02:51:46;14.30;;;3.73;;
18532;SDS011;9396;51.510;11.934;2023-12-22T02:54:13;16.80;;;4.20;;
18532;SDS011;9396;51.510;11.934;2023-12-22T02:56:41;19.43;;;3.67;;
18532;SDS011;9396;51.510;11.934;2023-12-22T02:59:08;12.80;;;3.70;;
18532;SDS011;9396;51.510;11.934;2023-12-22T03:01:35;19.43;;;3.50;;
18532;SDS011;9396;51.510;11.934;2023-12-22T03:04:02;21.27;;;4.17;;
18532;SDS011;9396;51.510;11.934;2023-12-22T03:06:29;15.80;;;3.70;;
18532;SDS011;9396;51.510;11.934;2023-12-22T03:08:55;18.73;;;3.63;;
18532;SDS011;9396;51.510;11.934;2023-12-22T03:11:22;18.37;;;3.63;;
18532;SDS011;9396;51.510;11.934;2023-12-22T03:13:50;12.40;;;3.83;;
18532;SDS011;9396;51.510;11.934;2023-12-22T03:16:17;20.80;;;3.93;;
18532;SDS011;9396;51.510;11.934;2023-12-22T03:18:43;17.27;;;3.37;;
18532;SDS011;9396;51.510;11.934;2023-12-22T03:21:15;15.23;;;3.77;;
18532;SDS011;9396;51.510;11.934;2023-12-22T03:23:43;14.83;;;3.30;;
18532;SDS011;9396;51.510;11.934;2023-12-22T03:26:09;17.23;;;2.97;;
18532;SDS011;9396;51.510;11.934;2023-12-22T03:28:36;14.47;;;2.60;;
18532;SDS011;9396;51.510;11.934;2023-12-22T03:31:04;16.53;;;4.27;;
18532;SDS011;9396;51.510;11.934;2023-12-22T03:33:31;20.83;;;3.47;;
18532;SDS011;9396;51.510;11.934;2023-12-22T03:35:58;12.50;;;2.60;;
18532;SDS011;9396;51.510;11.934;2023-12-22T03:38:25;8.70;;;2.97;;
18532;SDS011;9396;51.510;11.934;2023-12-22T03:40:51;14.97;;;3.23;;
18532;SDS011;9396;51.510;11.934;2023-12-22T03:43:18;18.73;;;3.07;;
18532;SDS011;9396;51.510;11.934;2023-12-22T03:45:45;13.57;;;3.57;;
18532;SDS011;9396;51.510;11.934;2023-12-22T03:48:12;16.97;;;3.13;;
18532;SDS011;9396;51.510;11.934;2023-12-22T03:50:39;14.10;;;3.00;;
18532;SDS011;9396;51.510;11.934;2023-12-22T03:53:06;20.53;;;3.33;;
18532;SDS011;9396;51.510;11.934;2023-12-22T03:55:32;16.30;;;3.20;;
18532;SDS011;9396;51.510;11.934;2023-12-22T03:57:59;13.07;;;3.10;;
18532;SDS011;9396;51.510;11.934;2023-12-22T04:00:26;10.57;;;2.67;;
18532;SDS011;9396;51.510;11.934;2023-12-22T04:02:52;14.43;;;2.50;;
18532;SDS011;9396;51.510;11.934;2023-12-22T04:05:20;16.50;;;3.07;;
18532;SDS011;9396;51.510;11.934;2023-12-22T04:07:47;11.53;;;2.60;;
18532;SDS011;9396;51.510;11.934;2023-12-22T04:10:15;11.13;;;2.20;;
18532;SDS011;9396;51.510;11.934;2023-12-22T04:12:42;8.00;;;2.37;;
18532;SDS011;9396;51.510;11.934;2023-12-22T04:15:09;11.00;;;2.73;;
18532;SDS011;9396;51.510;11.934;2023-12-22T04:17:36;10.53;;;2.20;;
18532;SDS011;9396;51.510;11.934;2023-12-22T04:20:02;8.20;;;1.90;;
18532;SDS011;9396;51.510;11.934;2023-12-22T04:22:30;9.73;;;2.23;;
18532;SDS011;9396;51.510;11.934;2023-12-22T04:24:56;7.03;;;1.63;;
18532;SDS011;9396;51.510;11.934;2023-12-22T04:27:23;12.47;;;2.67;;
18532;SDS011;9396;51.510;11.934;2023-12-22T04:29:50;5.50;;;1.50;;
18532;SDS011;9396;51.510;11.934;2023-12-22T04:32:16;10.57;;;2.13;;
18532;SDS011;9396;51.510;11.934;2023-12-22T04:34:43;10.87;;;1.90;;
18532;SDS011;9396;51.510;11.934;2023-12-22T04:37:10;7.30;;;2.33;;
18532;SDS011;9396;51.510;11.934;2023-12-22T04:39:38;7.67;;;2.20;;
18532;SDS011;9396;51.510;11.934;2023-12-22T04:42:04;6.00;;;1.77;;
18532;SDS011;9396;51.510;11.934;2023-12-22T04:44:31;12.43;;;2.27;;
18532;SDS011;9396;51.510;11.934;2023-12-22T04:46:57;10.63;;;2.50;;
18532;SDS011;9396;51.510;11.934;2023-12-22T04:49:24;6.73;;;1.90;;
18532;SDS011;9396;51.510;11.934;2023-12-22T04:51:50;11.53;;;2.27;;
18532;SDS011;9396;51.510;11.934;2023-12-22T04:54:17;13.53;;;2.13;;
18532;SDS011;9396;51.510;11.934;2023-12-22T04:56:45;7.33;;;1.73;;
18532;SDS011;9396;51.510;11.934;2023-12-22T04:59:12;11.40;;;3.13;;
18532;SDS011;9396;51.510;11.934;2023-12-22T05:01:38;12.57;;;2.37;;
18532;SDS011;9396;51.510;11.934;2023-12-22T05:04:05;10.30;;;2.00;;
18532;SDS011;9396;51.510;11.934;2023-12-22T05:06:31;5.87;;;1.70;;
18532;SDS011;9396;51.510;11.934;2023-12-22T05:08:58;9.03;;;2.90;;
18532;SDS011;9396;51.510;11.934;2023-12-22T05:11:25;11.00;;;2.10;;
18532;SDS011;9396;51.510;11.934;2023-12-22T05:13:53;9.63;;;2.43;;
18532;SDS011;9396;51.510;11.934;2023-12-22T05:16:19;12.97;;;2.67;;
18532;SDS011;9396;51.510;11.934;2023-12-22T05:18:46;12.70;;;2.10;;
18532;SDS011;9396;51.510;11.934;2023-12-22T05:21:13;14.40;;;2.00;;
18532;SDS011;9396;51.510;11.934;2023-12-22T05:23:40;7.30;;;1.90;;
18532;SDS011;9396;51.510;11.934;2023-12-22T05:26:06;11.73;;;2.07;;
18532;SDS011;9396;51.510;11.934;2023-12-22T05:28:33;5.87;;;1.53;;
18532;SDS011;9396;51.510;11.934;2023-12-22T05:31:01;7.73;;;1.63;;
18532;SDS011;9396;51.510;11.934;2023-12-22T05:33:28;9.40;;;1.83;;
18532;SDS011;9396;51.510;11.934;2023-12-22T05:35:54;14.10;;;2.37;;
18532;SDS011;9396;51.510;11.934;2023-12-22T05:38:21;8.67;;;2.43;;
18532;SDS011;9396;51.510;11.934;2023-12-22T05:40:48;13.77;;;2.40;;
18532;SDS011;9396;51.510;11.934;2023-12-22T05:43:14;12.63;;;2.53;;
18532;SDS011;9396;51.510;11.934;2023-12-22T05:45:41;10.50;;;2.37;;
18532;SDS011;9396;51.510;11.934;2023-12-22T05:48:09;12.73;;;2.23;;
18532;SDS011;9396;51.510;11.934;2023-12-22T05:50:36;11.00;;;2.50;;
18532;SDS011;9396;51.510;11.934;2023-12-22T05:53:02;15.30;;;3.03;;
18532;SDS011;9396;51.510;11.934;2023-12-22T05:55:29;18.97;;;2.93;;
18532;SDS011;9396;51.510;11.934;2023-12-22T05:57:56;15.47;;;4.10;;
18532;SDS011;9396;51.510;11.934;2023-12-22T06:00:22;14.43;;;2.77;;
18532;SDS011;9396;51.510;11.934;2023-12-22T06:02:49;13.37;;;2.17;;
18532;SDS011;9396;51.510;11.934;2023-12-22T06:05:17;13.23;;;2.50;;
18532;SDS011;9396;51.510;11.934;2023-12-22T06:07:44;10.20;;;2.17;;
18532;SDS011;9396;51.510;11.934;2023-12-22T06:10:10;14.00;;;3.07;;
18532;SDS011;9396;51.510;11.934;2023-12-22T06:12:37;16.70;;;3.23;;
18532;SDS011;9396;51.510;11.934;2023-12-22T06:15:04;12.27;;;2.33;;
18532;SDS011;9396;51.510;11.934;2023-12-22T06:17:32;15.53;;;2.53;;
18532;SDS011;9396;51.510;11.934;2023-12-22T06:19:59;15.27;;;2.50;;
18532;SDS011;9396;51.510;11.934;2023-12-22T06:22:27;16.57;;;2.77;;
18532;SDS011;9396;51.510;11.934;2023-12-22T06:24:53;12.77;;;2.53;;
18532;SDS011;9396;51.510;11.934;2023-12-22T06:27:20;12.47;;;2.80;;
18532;SDS011;9396;51.510;11.934;2023-12-22T06:29:47;13.17;;;2.33;;
18532;SDS011;9396;51.510;11.934;2023-12-22T06:32:14;12.83;;;2.20;;
18532;SDS011;9396;51.510;11.934;2023-12-22T06:34:42;12.37;;;2.30;;
18532;SDS011;9396;51.510;11.934;2023-12-22T06:37:08;9.67;;;2.00;;
18532;SDS011;9396;51.510;11.934;2023-12-22T06:39:37;9.60;;;2.03;;
18532;SDS011;9396;51.510;11.934;2023-12-22T06:42:04;11.07;;;2.20;;
18532;SDS011;9396;51.510;11.934;2023-12-22T06:44:35;6.97;;;2.03;;
18532;SDS011;9396;51.510;11.934;2023-12-22T06:47:02;4.87;;;1.90;;
18532;SDS011;9396;51.510;11.934;2023-12-22T06:49:30;8.90;;;2.10;;
18532;SDS011;9396;51.510;11.934;2023-12-22T06:51:56;10.57;;;2.33;;
18532;SDS011;9396;51.510;11.934;2023-12-22T06:54:23;11.20;;;2.50;;
18532;SDS011;9396;51.510;11.934;2023-12-22T06:56:51;8.93;;;2.03;;
18532;SDS011;9396;51.510;11.934;2023-12-22T06:59:17;11.73;;;2.40;;
18532;SDS011;9396;51.510;11.934;2023-12-22T07:01:44;8.17;;;1.80;;
18532;SDS011;9396;51.510;11.934;2023-12-22T07:04:10;10.07;;;2.40;;
18532;SDS011;9396;51.510;11.934;2023-12-22T07:06:37;12.00;;;2.30;;
18532;SDS011;9396;51.510;11.934;2023-12-22T07:11:59;12.47;;;2.37;;
18532;SDS011;9396;51.510;11.934;2023-12-22T07:14:28;11.93;;;2.27;;
18532;SDS011;9396;51.510;11.934;2023-12-22T07:16:55;18.47;;;2.57;;
18532;SDS011;9396;51.510;11.934;2023-12-22T07:19:23;10.27;;;2.33;;
18532;SDS011;9396;51.510;11.934;2023-12-22T07:21:50;10.90;;;1.90;;
18532;SDS011;9396;51.510;11.934;2023-12-22T07:24:16;5.90;;;1.60;;
18532;SDS011;9396;51.510;11.934;2023-12-22T07:26:44;7.80;;;1.57;;
18532;SDS011;9396;51.510;11.934;2023-12-22T07:29:12;7.97;;;1.80;;
18532;SDS011;9396;51.510;11.934;2023-12-22T07:31:38;10.47;;;1.90;;
18532;SDS011;9396;51.510;11.934;2023-12-22T07:34:05;9.63;;;2.10;;
18532;SDS011;9396;51.510;11.934;2023-12-22T07:36:32;10.00;;;2.20;;
18532;SDS011;9396;51.510;11.934;2023-12-22T07:38:58;10.97;;;1.83;;
18532;SDS011;9396;51.510;11.934;2023-12-22T07:41:25;10.03;;;2.07;;
18532;SDS011;9396;51.510;11.934;2023-12-22T07:43:52;4.90;;;1.63;;
18532;SDS011;9396;51.510;11.934;2023-12-22T07:46:20;8.80;;;1.77;;
18532;SDS011;9396;51.510;11.934;2023-12-22T07:48:47;17.70;;;2.03;;
18532;SDS011;9396;51.510;11.934;2023-12-22T07:51:13;6.93;;;1.83;;
18532;SDS011;9396;51.510;11.934;2023-12-22T07:53:40;6.33;;;1.20;;
18532;SDS011;9396;51.510;11.934;2023-12-22T07:56:07;5.27;;;1.13;;
18532;SDS011;9396;51.510;11.934;2023-12-22T07:58:35;7.47;;;2.17;;
18532;SDS011;9396;51.510;11.934;2023-12-22T08:01:03;9.60;;;1.90;;
18532;SDS011;9396;51.510;11.934;2023-12-22T08:03:31;11.63;;;2.10;;
18532;SDS011;9396;51.510;11.934;2023-12-22T08:05:58;10.03;;;1.73;;
18532;SDS011;9396;51.510;11.934;2023-12-22T08:08:25;4.43;;;1.40;;
18532;SDS011;9396;51.510;11.934;2023-12-22T08:10:51;4.57;;;1.60;;
18532;SDS011;9396;51.510;11.934;2023-12-22T08:13:18;9.20;;;1.87;;
18532;SDS011;9396;51.510;11.934;2023-12-22T08:15:45;6.37;;;1.50;;
18532;SDS011;9396;51.510;11.934;2023-12-22T08:18:11;5.73;;;1.20;;
18532;SDS011;9396;51.510;11.934;2023-12-22T08:20:39;5.83;;;1.40;;
18532;SDS011;9396;51.510;11.934;2023-12-22T08:23:06;6.60;;;1.23;;
18532;SDS011;9396;51.510;11.934;2023-12-22T08:25:32;7.83;;;1.80;;
18532;SDS011;9396;51.510;11.934;2023-12-22T08:27:59;7.97;;;1.80;;
18532;SDS011;9396;51.510;11.934;2023-12-22T08:30:26;12.27;;;2.87;;
18532;SDS011;9396;51.510;11.934;2023-12-22T08:32:52;11.30;;;2.57;;
18532;SDS011;9396;51.510;11.934;2023-12-22T08:35:19;4.00;;;1.90;;
18532;SDS011;9396;51.510;11.934;2023-12-22T08:37:47;6.10;;;1.53;;
18532;SDS011;9396;51.510;11.934;2023-12-22T08:40:14;7.07;;;1.80;;
18532;SDS011;9396;51.510;11.934;2023-12-22T08:42:41;3.63;;;1.37;;
18532;SDS011;9396;51.510;11.934;2023-12-22T08:45:08;4.30;;;1.20;;
18532;SDS011;9396;51.510;11.934;2023-12-22T08:47:34;6.50;;;1.40;;
18532;SDS011;9396;51.510;11.934;2023-12-22T08:50:01;3.53;;;1.03;;
18532;SDS011;9396;51.510;11.934;2023-12-22T08:52:29;5.10;;;1.10;;
18532;SDS011;9396;51.510;11.934;2023-12-22T08:54:57;4.77;;;1.20;;
18532;SDS011;9396;51.510;11.934;2023-12-22T08:57:24;3.60;;;0.90;;
18532;SDS011;9396;51.510;11.934;2023-12-22T08:59:50;5.50;;;1.00;;
18532;SDS011;9396;51.510;11.934;2023-12-22T09:02:17;2.77;;;0.90;;
18532;SDS011;9396;51.510;11.934;2023-12-22T09:04:43;5.40;;;1.37;;
18532;SDS011;9396;51.510;11.934;2023-12-22T09:07:10;2.57;;;0.87;;
18532;SDS011;9396;51.510;11.934;2023-12-22T09:09:37;3.57;;;0.90;;
18532;SDS011;9396;51.510;11.934;2023-12-22T09:12:05;1.33;;;0.70;;
18532;SDS011;9396;51.510;11.934;2023-12-22T09:14:32;6.03;;;0.90;;
18532;SDS011;9396;51.510;11.934;2023-12-22T09:16:58;5.67;;;1.20;;
18532;SDS011;9396;51.510;11.934;2023-12-22T09:19:25;4.70;;;0.90;;
18532;SDS011;9396;51.510;11.934;2023-12-22T09:21:52;2.23;;;0.90;;
18532;SDS011;9396;51.510;11.934;2023-12-22T09:24:19;3.23;;;0.90;;
18532;SDS011;9396;51.510;11.934;2023-12-22T09:26:46;1.63;;;0.90;;
18532;SDS011;9396;51.510;11.934;2023-12-22T09:29:14;3.00;;;0.70;;
18532;SDS011;9396;51.510;11.934;2023-12-22T09:31:40;2.70;;;0.80;;
18532;SDS011;9396;51.510;11.934;2023-12-22T09:34:07;2.77;;;0.93;;
18532;SDS011;9396;51.510;11.934;2023-12-22T09:36:34;0.70;;;0.60;;
18532;SDS011;9396;51.510;11.934;2023-12-22T09:39:00;1.10;;;0.70;;
18532;SDS011;9396;51.510;11.934;2023-12-22T09:41:27;1.77;;;0.67;;
18532;SDS011;9396;51.510;11.934;2023-12-22T09:43:54;0.87;;;0.77;;
18532;SDS011;9396;51.510;11.934;2023-12-22T09:46:23;1.10;;;0.70;;
18532;SDS011;9396;51.510;11.934;2023-12-22T09:48:52;0.93;;;0.63;;
18532;SDS011;9396;51.510;11.934;2023-12-22T09:51:20;1.13;;;0.60;;
18532;SDS011;9396;51.510;11.934;2023-12-22T09:53:47;1.87;;;0.50;;
18532;SDS011;9396;51.510;11.934;2023-12-22T09:56:15;1.83;;;0.70;;
18532;SDS011;9396;51.510;11.934;2023-12-22T09:58:43;2.33;;;0.93;;
18532;SDS011;9396;51.510;11.934;2023-12-22T10:01:12;5.43;;;1.10;;
18532;SDS011;9396;51.510;11.934;2023-12-22T10:03:41;3.03;;;1.03;;
18532;SDS011;9396;51.510;11.934;2023-12-22T10:06:09;2.33;;;0.90;;
18532;SDS011;9396;51.510;11.934;2023-12-22T10:08:36;1.83;;;0.73;;
18532;SDS011;9396;51.510;11.934;2023-12-22T10:11:04;5.87;;;0.80;;
18532;SDS011;9396;51.510;11.934;2023-12-22T10:13:33;1.70;;;0.80;;
18532;SDS011;9396;51.510;11.934;2023-12-22T10:16:03;4.10;;;0.93;;
18532;SDS011;9396;51.510;11.934;2023-12-22T10:18:32;6.43;;;1.00;;
18532;SDS011;9396;51.510;11.934;2023-12-22T10:21:00;3.50;;;1.10;;
18532;SDS011;9396;51.510;11.934;2023-12-22T10:23:27;3.50;;;1.10;;
18532;SDS011;9396;51.510;11.934;2023-12-22T10:25:54;3.57;;;1.20;;
18532;SDS011;9396;51.510;11.934;2023-12-22T10:28:23;7.37;;;1.47;;
18532;SDS011;9396;51.510;11.934;2023-12-22T10:30:51;7.63;;;1.70;;
18532;SDS011;9396;51.510;11.934;2023-12-22T10:33:21;10.03;;;1.87;;
18532;SDS011;9396;51.510;11.934;2023-12-22T10:35:47;12.33;;;2.37;;
18532;SDS011;9396;51.510;11.934;2023-12-22T10:38:18;14.40;;;2.60;;
18532;SDS011;9396;51.510;11.934;2023-12-22T10:40:45;12.60;;;2.77;;
18532;SDS011;9396;51.510;11.934;2023-12-22T10:43:12;12.30;;;2.70;;
18532;SDS011;9396;51.510;11.934;2023-12-22T10:45:39;16.93;;;2.33;;
18532;SDS011;9396;51.510;11.934;2023-12-22T10:48:06;11.60;;;2.60;;
18532;SDS011;9396;51.510;11.934;2023-12-22T10:50:33;17.77;;;3.13;;
18532;SDS011;9396;51.510;11.934;2023-12-22T10:53:00;16.53;;;3.27;;
18532;SDS011;9396;51.510;11.934;2023-12-22T10:55:28;14.50;;;2.73;;
18532;SDS011;9396;51.510;11.934;2023-12-22T10:57:55;15.07;;;4.33;;
18532;SDS011;9396;51.510;11.934;2023-12-22T11:00:21;14.07;;;2.70;;
18532;SDS011;9396;51.510;11.934;2023-12-22T11:02:49;11.07;;;2.17;;
18532;SDS011;9396;51.510;11.934;2023-12-22T11:05:24;12.40;;;2.70;;
18532;SDS011;9396;51.510;11.934;2023-12-22T11:07:54;8.40;;;1.90;;
18532;SDS011;9396;51.510;11.934;2023-12-22T11:10:22;12.10;;;2.80;;
18532;SDS011;9396;51.510;11.934;2023-12-22T11:12:51;10.30;;;2.40;;
18532;SDS011;9396;51.510;11.934;2023-12-22T11:15:18;10.70;;;2.60;;
18532;SDS011;9396;51.510;11.934;2023-12-22T11:17:46;11.07;;;2.40;;
18532;SDS011;9396;51.510;11.934;2023-12-22T11:20:15;13.87;;;2.73;;
18532;SDS011;9396;51.510;11.934;2023-12-22T11:22:44;7.30;;;2.80;;
18532;SDS011;9396;51.510;11.934;2023-12-22T11:25:11;13.53;;;2.50;;
18532;SDS011;9396;51.510;11.934;2023-12-22T11:27:40;12.00;;;2.67;;
18532;SDS011;9396;51.510;11.934;2023-12-22T11:30:10;13.43;;;3.27;;
18532;SDS011;9396;51.510;11.934;2023-12-22T11:32:38;9.37;;;2.50;;
18532;SDS011;9396;51.510;11.934;2023-12-22T11:35:06;12.07;;;2.53;;
18532;SDS011;9396;51.510;11.934;2023-12-22T11:37:34;8.57;;;2.43;;
18532;SDS011;9396;51.510;11.934;2023-12-22T11:40:02;8.93;;;2.50;;
18532;SDS011;9396;51.510;11.934;2023-12-22T11:42:31;7.03;;;2.20;;
18532;SDS011;9396;51.510;11.934;2023-12-22T11:45:01;8.87;;;2.30;;
18532;SDS011;9396;51.510;11.934;2023-12-22T11:47:30;10.50;;;3.03;;
18532;SDS011;9396;51.510;11.934;2023-12-22T11:49:57;11.17;;;2.20;;
18532;SDS011;9396;51.510;11.934;2023-12-22T11:52:26;9.83;;;2.03;;
18532;SDS011;9396;51.510;11.934;2023-12-22T11:54:54;10.70;;;2.63;;
18532;SDS011;9396;51.510;11.934;2023-12-22T11:57:31;5.57;;;1.77;;
18532;SDS011;9396;51.510;11.934;2023-12-22T12:00:00;5.93;;;1.40;;
18532;SDS011;9396;51.510;11.934;2023-12-22T12:02:30;16.80;;;2.47;;
18532;SDS011;9396;51.510;11.934;2023-12-22T12:04:58;10.67;;;2.17;;
18532;SDS011;9396;51.510;11.934;2023-12-22T12:07:38;14.17;;;2.03;;
18532;SDS011;9396;51.510;11.934;2023-12-22T12:10:07;9.00;;;1.93;;
18532;SDS011;9396;51.510;11.934;2023-12-22T12:12:34;7.77;;;1.87;;
18532;SDS011;9396;51.510;11.934;2023-12-22T12:15:06;7.70;;;1.43;;
18532;SDS011;9396;51.510;11.934;2023-12-22T12:17:39;9.83;;;1.93;;
18532;SDS011;9396;51.510;11.934;2023-12-22T12:20:07;6.00;;;1.93;;
18532;SDS011;9396;51.510;11.934;2023-12-22T12:22:35;7.97;;;1.90;;
18532;SDS011;9396;51.510;11.934;2023-12-22T12:25:07;10.77;;;1.90;;
18532;SDS011;9396;51.510;11.934;2023-12-22T12:27:35;9.67;;;2.00;;
18532;SDS011;9396;51.510;11.934;2023-12-22T12:30:10;11.80;;;2.50;;
18532;SDS011;9396;51.510;11.934;2023-12-22T12:32:40;10.70;;;1.93;;
18532;SDS011;9396;51.510;11.934;2023-12-22T12:35:09;8.83;;;2.20;;
18532;SDS011;9396;51.510;11.934;2023-12-22T12:37:36;9.33;;;2.07;;
18532;SDS011;9396;51.510;11.934;2023-12-22T12:40:03;12.17;;;1.80;;
18532;SDS011;9396;51.510;11.934;2023-12-22T12:42:33;7.30;;;1.77;;
18532;SDS011;9396;51.510;11.934;2023-12-22T12:45:02;7.60;;;1.57;;
18532;SDS011;9396;51.510;11.934;2023-12-22T12:47:30;10.00;;;2.03;;
18532;SDS011;9396;51.510;11.934;2023-12-22T12:49:58;10.10;;;2.07;;
18532;SDS011;9396;51.510;11.934;2023-12-22T12:52:25;9.90;;;2.17;;
18532;SDS011;9396;51.510;11.934;2023-12-22T12:54:52;9.80;;;1.93;;
18532;SDS011;9396;51.510;11.934;2023-12-22T12:57:19;11.10;;;2.00;;
18532;SDS011;9396;51.510;11.934;2023-12-22T12:59:46;10.27;;;2.50;;
18532;SDS011;9396;51.510;11.934;2023-12-22T13:02:14;12.13;;;3.47;;
18532;SDS011;9396;51.510;11.934;2023-12-22T13:04:41;6.03;;;1.67;;
18532;SDS011;9396;51.510;11.934;2023-12-22T13:07:10;4.33;;;1.50;;
18532;SDS011;9396;51.510;11.934;2023-12-22T13:09:38;7.50;;;1.70;;
18532;SDS011;9396;51.510;11.934;2023-12-22T13:12:07;13.70;;;2.10;;
18532;SDS011;9396;51.510;11.934;2023-12-22T13:14:34;14.70;;;2.60;;
18532;SDS011;9396;51.510;11.934;2023-12-22T13:17:00;10.47;;;2.00;;
18532;SDS011;9396;51.510;11.934;2023-12-22T13:19:27;9.27;;;2.27;;
18532;SDS011;9396;51.510;11.934;2023-12-22T13:21:54;11.17;;;2.53;;
18532;SDS011;9396;51.510;11.934;2023-12-22T13:24:23;12.43;;;2.27;;
18532;SDS011;9396;51.510;11.934;2023-12-22T13:26:58;9.03;;;2.07;;
18532;SDS011;9396;51.510;11.934;2023-12-22T13:29:26;11.70;;;2.03;;
18532;SDS011;9396;51.510;11.934;2023-12-22T13:31:53;14.80;;;3.43;;
18532;SDS011;9396;51.510;11.934;2023-12-22T13:34:20;13.23;;;1.87;;
18532;SDS011;9396;51.510;11.934;2023-12-22T13:36:47;6.47;;;1.77;;
18532;SDS011;9396;51.510;11.934;2023-12-22T13:39:14;11.50;;;2.10;;
18532;SDS011;9396;51.510;11.934;2023-12-22T13:41:42;13.20;;;2.80;;
18532;SDS011;9396;51.510;11.934;2023-12-22T13:44:11;17.40;;;3.33;;
18532;SDS011;9396;51.510;11.934;2023-12-22T13:46:38;6.87;;;2.10;;
18532;SDS011;9396;51.510;11.934;2023-12-22T13:49:06;16.43;;;2.70;;
18532;SDS011;9396;51.510;11.934;2023-12-22T13:51:40;18.23;;;2.63;;
18532;SDS011;9396;51.510;11.934;2023-12-22T13:54:07;12.53;;;2.33;;
18532;SDS011;9396;51.510;11.934;2023-12-22T13:56:34;11.30;;;2.23;;
18532;SDS011;9396;51.510;11.934;2023-12-22T13:59:03;10.70;;;2.10;;
18532;SDS011;9396;51.510;11.934;2023-12-22T14:01:30;12.13;;;2.03;;
18532;SDS011;9396;51.510;11.934;2023-12-22T14:03:57;8.93;;;1.93;;
18532;SDS011;9396;51.510;11.934;2023-12-22T14:06:24;13.80;;;2.60;;
18532;SDS011;9396;51.510;11.934;2023-12-22T14:08:51;12.13;;;2.57;;
18532;SDS011;9396;51.510;11.934;2023-12-22T14:11:18;15.30;;;2.53;;
18532;SDS011;9396;51.510;11.934;2023-12-22T14:13:44;9.37;;;2.37;;
18532;SDS011;9396;51.510;11.934;2023-12-22T14:16:12;12.17;;;2.23;;
18532;SDS011;9396;51.510;11.934;2023-12-22T14:18:40;8.50;;;2.10;;
18532;SDS011;9396;51.510;11.934;2023-12-22T14:21:06;14.50;;;2.77;;
18532;SDS011;9396;51.510;11.934;2023-12-22T14:23:33;9.60;;;2.53;;
18532;SDS011;9396;51.510;11.934;2023-12-22T14:26:00;12.33;;;2.77;;
18532;SDS011;9396;51.510;11.934;2023-12-22T14:28:27;10.10;;;2.00;;
18532;SDS011;9396;51.510;11.934;2023-12-22T14:30:53;8.57;;;2.70;;
18532;SDS011;9396;51.510;11.934;2023-12-22T14:33:21;8.20;;;2.03;;
18532;SDS011;9396;51.510;11.934;2023-12-22T14:35:48;10.60;;;2.47;;
18532;SDS011;9396;51.510;11.934;2023-12-22T14:38:15;16.97;;;2.37;;
18532;SDS011;9396;51.510;11.934;2023-12-22T14:40:41;9.70;;;2.20;;
18532;SDS011;9396;51.510;11.934;2023-12-22T14:43:08;11.70;;;2.40;;